Fort Benton (79S)
Fort Benton, MT
Field Elevation: 2869
Lat: 47°50.42N  Long: 110°38.11W
CTAF/Unicom Freq: 122.8000
   
     For Weather-by-Phone, call 406-622-5976
Weather Advisories
7/30/2015   00:02 Z
Altimeter 30.10" Hg
Wind 220° @ 11 KT
Gusts 16 KT
Visibility 10 SM
Temperature 28° C (82° F)
Dewpoint 3° C (37° F)
Relative Humidity 19%
Density Altitude 4,800 feet
Condensation Altitude 15,600 feet
Heat Index: 27° C (81° F)
Wind and Runways
Indicated Runway = 23
Headwind = 11 kt
Crosswind = 2 kt
History
 
 
 
More Info
All DigiWx sites map
NOAA Forecast
 
Airport IQ 5010
(6S5) Ravalli County
(S71) Edgar Obie
 
about DigiWx
 
FAA Disclaimer: The data displayed is for advisory purposes only and is not to be used for flight planning or operations. For official data, please call 406-622-5976 to hear the current automated AWOS voice message.
  METAR 79S 300002Z AUTO 22011G16KT VIS 10 SM 28/03 A3010